Time;durP1;ratioP1;P1;durP2;ratioP2;P2;SDS_P1;SDS_P2;PMS_P1;PMS_P2;Temp;Humidity;BMP_temperature;BMP_pressure;BME280_temperature;BME280_humidity;BME280_pressure;Samples;Min_cycle;Max_cycle;Signal;HPM_P1;HPM_P2
2022/07/20 00:01:04;;;;;;;1.20;1.10;;;25.40;59.90;;;;;;5080928;27;20048;-19
2022/07/20 00:03:30;;;;;;;0.70;0.70;;;25.40;60.00;;;;;;5080202;27;20068;-18
2022/07/20 00:05:56;;;;;;;0.80;0.80;;;25.40;60.00;;;;;;5079444;27;20040;-19
2022/07/20 00:11:22;;;;;;;0.95;0.88;;;25.40;60.00;;;;;;5079302;27;20521;-19
2022/07/20 00:13:52;;;;;;;0.60;0.60;;;25.40;60.00;;;;;;5079257;27;20052;-18
2022/07/20 00:16:22;;;;;;;0.50;0.50;;;25.40;60.00;;;;;;5080780;27;20036;-18
2022/07/20 00:18:47;;;;;;;0.52;0.52;;;25.40;60.00;;;;;;5081863;28;20052;-18
2022/07/20 00:21:13;;;;;;;0.65;0.65;;;25.40;60.00;;;;;;5079368;27;20035;-18
2022/07/20 00:23:39;;;;;;;0.70;0.70;;;25.40;60.10;;;;;;5081918;27;20059;-18
2022/07/20 00:26:04;;;;;;;0.52;0.52;;;25.40;60.10;;;;;;5079063;28;20032;-18
2022/07/20 00:28:30;;;;;;;0.73;0.73;;;25.40;60.10;;;;;;5079244;27;20517;-18
2022/07/20 00:30:55;;;;;;;0.68;0.68;;;25.40;60.00;;;;;;5079980;27;20055;-18
2022/07/20 00:33:21;;;;;;;0.82;0.80;;;25.40;60.00;;;;;;5086554;27;20047;-24
2022/07/20 00:35:46;;;;;;;0.63;0.63;;;25.40;60.00;;;;;;5084463;27;20067;-24
2022/07/20 00:38:14;;;;;;;0.50;0.50;;;25.40;59.90;;;;;;5082791;27;20105;-22
2022/07/20 00:40:39;;;;;;;0.57;0.57;;;25.40;59.90;;;;;;5084315;27;20052;-22
2022/07/20 00:43:05;;;;;;;0.60;0.60;;;25.40;59.80;;;;;;5087075;27;20569;-24
2022/07/20 00:45:31;;;;;;;0.68;0.68;;;25.40;60.00;;;;;;5081675;27;20043;-24
2022/07/20 00:47:56;;;;;;;0.50;0.50;;;25.40;59.90;;;;;;5082515;27;20063;-23
2022/07/20 00:50:22;;;;;;;0.70;0.70;;;25.40;60.00;;;;;;5078811;27;20038;-21
2022/07/20 00:52:47;;;;;;;0.75;0.70;;;25.40;59.90;;;;;;5078136;28;20072;-26
2022/07/20 00:55:13;;;;;;;0.57;0.57;;;25.40;59.90;;;;;;5080719;28;20043;-22
2022/07/20 00:57:38;;;;;;;0.50;0.50;;;25.40;59.90;;;;;;5078832;28;22026;-25
2022/07/20 01:00:06;;;;;;;0.50;0.50;;;25.40;60.00;;;;;;5080631;27;20079;-24
2022/07/20 01:02:32;;;;;;;0.50;0.50;;;25.40;60.00;;;;;;5079362;27;20423;-21
2022/07/20 01:04:58;;;;;;;0.73;0.73;;;25.40;60.00;;;;;;5081968;27;20039;-24
2022/07/20 01:07:23;;;;;;;0.57;0.57;;;25.40;59.90;;;;;;5077559;28;20063;-21
2022/07/20 01:09:49;;;;;;;0.57;0.57;;;25.40;60.00;;;;;;5077643;27;20047;-23
2022/07/20 01:12:14;;;;;;;0.50;0.40;;;25.40;59.90;;;;;;5080554;28;20418;-25
2022/07/20 01:14:40;;;;;;;0.57;0.57;;;25.40;60.00;;;;;;5081796;27;20063;-32
2022/07/20 01:17:05;;;;;;;0.50;0.50;;;25.40;59.90;;;;;;5077273;27;20052;-24
2022/07/20 01:19:31;;;;;;;0.50;0.50;;;25.30;59.90;;;;;;5079603;27;20044;-21
2022/07/20 01:21:57;;;;;;;0.70;0.52;;;25.30;59.90;;;;;;5081761;27;20032;-26
2022/07/20 01:24:22;;;;;;;0.40;0.40;;;25.40;60.00;;;;;;5082271;27;20037;-21
2022/07/20 01:26:48;;;;;;;0.50;0.50;;;25.40;60.00;;;;;;5083335;27;20048;-22
2022/07/20 01:29:13;;;;;;;0.47;0.47;;;25.40;60.00;;;;;;5083265;28;20040;-22
2022/07/20 01:31:39;;;;;;;0.63;0.63;;;25.40;59.90;;;;;;5082125;28;20423;-26
2022/07/20 01:34:05;;;;;;;0.60;0.60;;;25.40;59.90;;;;;;5084199;27;20517;-21
2022/07/20 01:36:31;;;;;;;0.40;0.40;;;25.40;60.00;;;;;;5084641;27;20028;-24
2022/07/20 01:38:56;;;;;;;0.40;0.40;;;25.40;60.80;;;;;;5082627;27;20517;-25
2022/07/20 01:41:22;;;;;;;0.52;0.52;;;25.40;59.90;;;;;;5084054;27;20035;-23
2022/07/20 01:43:47;;;;;;;0.43;0.43;;;25.40;59.80;;;;;;5080570;27;20032;-24
2022/07/20 01:46:13;;;;;;;0.52;0.52;;;25.40;59.90;;;;;;5085108;28;20063;-26
2022/07/20 01:48:39;;;;;;;0.70;0.60;;;25.30;59.80;;;;;;5079745;28;20036;-22
2022/07/20 01:51:04;;;;;;;0.60;0.60;;;25.30;59.90;;;;;;5084645;28;20036;-22
2022/07/20 01:53:30;;;;;;;0.50;0.50;;;25.40;59.90;;;;;;5080451;27;20044;-23
2022/07/20 01:55:55;;;;;;;0.52;0.52;;;25.40;59.90;;;;;;5082293;27;20041;-22
2022/07/20 01:58:21;;;;;;;0.75;0.55;;;25.40;59.90;;;;;;5082723;27;20047;-25
2022/07/20 02:00:47;;;;;;;0.40;0.40;;;25.30;59.80;;;;;;5083561;27;20035;-28
2022/07/20 02:03:13;;;;;;;0.38;0.38;;;25.30;59.90;;;;;;5081830;27;20098;-21
2022/07/20 02:05:38;;;;;;;0.60;0.60;;;25.30;59.90;;;;;;5083723;27;20054;-22
2022/07/20 02:08:04;;;;;;;0.50;0.50;;;25.30;59.90;;;;;;5079933;27;20163;-28
2022/07/20 02:10:29;;;;;;;0.80;0.60;;;25.30;59.80;;;;;;5084367;27;20079;-23
2022/07/20 02:12:55;;;;;;;0.90;0.80;;;25.30;60.00;;;;;;5084474;27;20040;-21
2022/07/20 02:18:05;;;;;;;;;;;25.30;60.00;;;;;;5080033;28;20173;-21
2022/07/20 02:20:31;;;;;;;0.38;0.38;;;25.30;59.80;;;;;;5082087;27;19995;-27
2022/07/20 02:22:57;;;;;;;1.38;0.63;;;25.30;59.80;;;;;;5083855;28;20612;-23
2022/07/20 02:25:22;;;;;;;0.68;0.68;;;25.30;59.80;;;;;;5083413;27;20051;-21
2022/07/20 02:27:48;;;;;;;0.50;0.50;;;25.30;59.90;;;;;;5081989;28;20040;-21
2022/07/20 02:30:13;;;;;;;0.40;0.40;;;25.30;59.90;;;;;;5082071;27;20170;-23
2022/07/20 02:32:40;;;;;;;0.35;0.35;;;25.30;59.90;;;;;;5081257;27;20525;-21
2022/07/20 02:35:05;;;;;;;0.50;0.50;;;25.30;59.80;;;;;;5084173;28;20573;-28
2022/07/20 02:37:31;;;;;;;0.45;0.45;;;25.30;59.80;;;;;;5081925;27;20044;-22
2022/07/20 02:39:57;;;;;;;0.40;0.40;;;25.30;59.80;;;;;;5081390;28;20583;-28
2022/07/20 02:42:22;;;;;;;0.45;0.45;;;25.30;59.80;;;;;;5081710;27;20075;-25
2022/07/20 02:44:48;;;;;;;0.40;0.40;;;25.30;59.80;;;;;;5081944;27;20067;-21
2022/07/20 02:47:13;;;;;;;0.50;0.50;;;25.30;59.80;;;;;;5078957;27;20059;-22
2022/07/20 02:49:39;;;;;;;0.40;0.40;;;25.30;59.80;;;;;;5081362;27;20064;-22
2022/07/20 02:52:04;;;;;;;0.60;0.60;;;25.30;59.70;;;;;;5083437;27;20494;-21
2022/07/20 02:54:30;;;;;;;0.40;0.40;;;25.30;59.80;;;;;;5078527;27;20044;-24
2022/07/20 02:56:56;;;;;;;0.50;0.50;;;25.30;59.90;;;;;;5079750;27;20490;-23
2022/07/20 02:59:21;;;;;;;0.70;0.70;;;25.30;60.00;;;;;;5081769;28;20048;-23
2022/07/20 03:01:47;;;;;;;0.50;0.50;;;25.30;59.90;;;;;;5080158;27;20051;-22
2022/07/20 03:04:12;;;;;;;0.40;0.40;;;25.30;59.90;;;;;;5083478;27;20048;-21
2022/07/20 03:06:38;;;;;;;0.40;0.40;;;25.20;60.60;;;;;;5080658;27;20604;-21
2022/07/20 03:09:03;;;;;;;0.47;0.45;;;25.30;59.90;;;;;;5081534;27;20056;-21
2022/07/20 03:11:29;;;;;;;0.55;0.55;;;25.30;59.90;;;;;;5081883;27;20197;-23
2022/07/20 03:13:55;;;;;;;0.50;0.50;;;25.30;60.00;;;;;;5079099;27;20056;-23
2022/07/20 03:16:20;;;;;;;0.40;0.40;;;25.30;59.90;;;;;;5079895;28;20111;-23
2022/07/20 03:18:46;;;;;;;0.40;0.40;;;25.30;60.60;;;;;;5080610;27;20406;-21
2022/07/20 03:21:11;;;;;;;0.40;0.40;;;25.30;59.90;;;;;;5081387;27;20051;-21
2022/07/20 03:23:37;;;;;;;0.52;0.52;;;25.30;59.80;;;;;;5081262;27;20097;-23
2022/07/20 03:26:02;;;;;;;0.43;0.43;;;25.30;59.90;;;;;;5082485;27;20116;-21
2022/07/20 03:28:28;;;;;;;0.43;0.30;;;25.20;59.90;;;;;;5081072;28;20058;-25
2022/07/20 03:30:53;;;;;;;0.45;0.45;;;25.30;59.90;;;;;;5081917;27;20044;-21
2022/07/20 03:33:19;;;;;;;0.40;0.40;;;25.30;59.90;;;;;;5081216;27;20404;-21
2022/07/20 03:35:45;;;;;;;0.52;0.30;;;25.30;59.90;;;;;;5078669;27;20050;-22
2022/07/20 03:38:10;;;;;;;0.52;0.50;;;25.20;59.90;;;;;;5081802;27;20123;-22
2022/07/20 03:40:36;;;;;;;0.38;0.30;;;25.30;59.90;;;;;;5081229;27;20066;-21
2022/07/20 03:43:01;;;;;;;0.30;0.30;;;25.20;59.90;;;;;;5083179;27;20508;-22
2022/07/20 03:45:27;;;;;;;0.30;0.30;;;25.20;59.90;;;;;;5081013;27;20044;-21
2022/07/20 03:47:52;;;;;;;0.40;0.40;;;25.20;59.90;;;;;;5075956;27;20048;-21
2022/07/20 03:50:18;;;;;;;0.40;0.40;;;25.20;59.90;;;;;;5083281;27;20426;-22
2022/07/20 03:52:43;;;;;;;0.50;0.50;;;25.20;59.90;;;;;;5078115;27;20052;-24
2022/07/20 03:55:09;;;;;;;0.43;0.43;;;25.20;60.00;;;;;;5081213;28;21183;-25
2022/07/20 03:57:35;;;;;;;0.38;0.30;;;25.20;60.00;;;;;;5076584;28;21853;-22
2022/07/20 04:00:00;;;;;;;0.65;0.40;;;25.20;59.90;;;;;;5082521;27;20048;-22
2022/07/20 04:02:26;;;;;;;0.32;0.32;;;25.20;59.90;;;;;;5081873;27;20036;-23
2022/07/20 04:04:51;;;;;;;0.40;0.40;;;25.20;59.90;;;;;;5080758;27;20421;-23
2022/07/20 04:07:17;;;;;;;0.30;0.30;;;25.20;60.00;;;;;;5084992;27;20119;-21
2022/07/20 04:09:46;;;;;;;0.52;0.52;;;25.20;60.00;;;;;;5083279;27;20090;-22
2022/07/20 04:12:19;;;;;;;0.40;0.40;;;25.20;59.90;;;;;;5084992;27;20075;-28
2022/07/20 04:14:45;;;;;;;0.80;0.40;;;25.20;60.80;;;;;;5082176;27;20116;-21
2022/07/20 04:17:11;;;;;;;0.30;0.30;;;25.20;59.90;;;;;;5084141;27;20429;-23
2022/07/20 04:19:36;;;;;;;0.30;0.30;;;25.20;60.00;;;;;;5082296;28;20044;-24
2022/07/20 04:22:02;;;;;;;0.60;0.40;;;25.20;59.90;;;;;;5083294;28;20067;-23
2022/07/20 04:24:28;;;;;;;0.45;0.30;;;25.20;60.00;;;;;;5081232;28;20117;-25
2022/07/20 04:26:53;;;;;;;0.38;0.38;;;25.20;59.90;;;;;;5082625;27;20060;-22
2022/07/20 04:29:20;;;;;;;0.40;0.40;;;25.20;60.00;;;;;;5084711;28;20117;-23
2022/07/20 04:31:46;;;;;;;0.40;0.40;;;25.20;59.90;;;;;;5084459;27;20044;-22
2022/07/20 04:34:11;;;;;;;0.40;0.40;;;25.20;59.90;;;;;;5085897;27;20040;-25
2022/07/20 04:36:37;;;;;;;0.32;0.32;;;25.20;59.90;;;;;;5083947;27;20036;-25
2022/07/20 04:39:03;;;;;;;0.28;0.28;;;25.20;60.00;;;;;;5082969;27;20067;-24
2022/07/20 04:41:28;;;;;;;0.60;0.60;;;25.20;60.40;;;;;;5080872;27;20036;-24
2022/07/20 04:43:54;;;;;;;0.80;0.70;;;25.00;61.70;;;;;;5082993;28;20048;-23
2022/07/20 04:46:19;;;;;;;0.60;0.60;;;24.70;64.10;;;;;;4724501;27;10000609;-21
2022/07/20 04:48:45;;;;;;;1.25;0.80;;;24.40;66.00;;;;;;5078039;27;20133;-24
2022/07/20 04:51:11;;;;;;;1.10;1.00;;;24.30;67.00;;;;;;5077534;28;20052;-22
2022/07/20 04:53:36;;;;;;;1.17;0.90;;;24.00;68.00;;;;;;5080369;28;20032;-21
2022/07/20 04:56:02;;;;;;;0.52;0.50;;;23.80;69.40;;;;;;5079580;27;20567;-22
2022/07/20 04:58:31;;;;;;;0.93;0.65;;;23.60;70.20;;;;;;5080930;28;20044;-21
2022/07/20 05:00:57;;;;;;;1.38;0.82;;;23.50;70.50;;;;;;5075412;27;20066;-25
2022/07/20 05:03:22;;;;;;;1.42;0.90;;;23.60;70.20;;;;;;5071448;28;20123;-23
2022/07/20 05:05:48;;;;;;;1.77;1.10;;;23.50;70.60;;;;;;5076677;27;20498;-23
2022/07/20 05:08:13;;;;;;;2.25;1.17;;;23.70;69.80;;;;;;5075625;27;20134;-26
2022/07/20 05:10:39;;;;;;;1.85;0.75;;;23.70;69.90;;;;;;5074073;27;20086;-23
2022/07/20 05:13:04;;;;;;;1.27;0.90;;;23.70;70.20;;;;;;5074166;27;20119;-21
2022/07/20 05:15:30;;;;;;;2.15;0.93;;;23.70;70.20;;;;;;5073941;28;22202;-20
2022/07/20 05:17:56;;;;;;;2.05;1.08;;;23.50;70.80;;;;;;5071104;28;20070;-32
2022/07/20 05:20:22;;;;;;;1.10;0.93;;;23.60;70.30;;;;;;5074482;27;22640;-26
2022/07/20 05:22:47;;;;;;;1.38;0.88;;;23.40;70.80;;;;;;5073264;28;20072;-22
2022/07/20 05:25:13;;;;;;;2.85;1.10;;;23.30;70.90;;;;;;5077084;28;20131;-24
2022/07/20 05:27:39;;;;;;;1.15;0.80;;;23.20;71.50;;;;;;5073766;28;20055;-21
2022/07/20 05:30:05;;;;;;;2.75;0.90;;;23.30;70.80;;;;;;5074767;27;20040;-25
2022/07/20 05:32:30;;;;;;;1.67;0.90;;;23.40;70.70;;;;;;5075821;27;20048;-22
2022/07/20 05:34:56;;;;;;;2.33;1.20;;;23.40;70.80;;;;;;5070589;27;20082;-21
2022/07/20 05:37:22;;;;;;;2.28;1.15;;;23.30;71.00;;;;;;5075219;28;20506;-23
2022/07/20 05:39:47;;;;;;;1.42;0.90;;;23.30;71.10;;;;;;5069327;27;20130;-21
2022/07/20 05:42:13;;;;;;;2.45;1.58;;;23.20;71.50;;;;;;5074175;27;20051;-24
2022/07/20 05:44:39;;;;;;;1.73;0.93;;;23.30;71.40;;;;;;5073130;27;20071;-22
2022/07/20 05:47:06;;;;;;;1.80;1.20;;;23.10;71.90;;;;;;5063622;27;20540;-22
2022/07/20 05:49:38;;;;;;;3.00;1.13;;;23.00;72.30;;;;;;5072299;28;20048;-22
2022/07/20 05:52:04;;;;;;;1.85;1.05;;;23.00;72.50;;;;;;5072136;28;20132;-23
2022/07/20 05:54:30;;;;;;;2.05;1.10;;;22.90;73.00;;;;;;5069050;28;20493;-22
2022/07/20 05:56:55;;;;;;;1.77;1.30;;;23.00;72.70;;;;;;5072025;27;20067;-23
2022/07/20 05:59:21;;;;;;;1.50;1.10;;;22.90;72.90;;;;;;5065565;28;20588;-22
2022/07/20 06:01:46;;;;;;;2.20;1.08;;;23.00;72.80;;;;;;5064870;28;20037;-21
2022/07/20 06:04:12;;;;;;;2.33;1.65;;;23.00;72.50;;;;;;5068142;28;20667;-22
2022/07/20 06:06:38;;;;;;;2.63;1.30;;;22.80;73.30;;;;;;5069688;28;20037;-22
2022/07/20 06:09:07;;;;;;;2.42;1.13;;;22.90;73.00;;;;;;5068072;27;20060;-25
2022/07/20 06:11:32;;;;;;;1.92;1.08;;;22.70;73.70;;;;;;5069122;28;20514;-26
2022/07/20 06:13:58;;;;;;;2.30;1.42;;;22.60;74.00;;;;;;5064345;27;20048;-22
2022/07/20 06:16:24;;;;;;;2.83;1.60;;;22.60;74.00;;;;;;5075089;27;20444;-23
2022/07/20 06:18:49;;;;;;;1.33;1.00;;;22.70;73.70;;;;;;5073212;27;20076;-21
2022/07/20 06:21:15;;;;;;;1.70;1.40;;;22.80;73.70;;;;;;5070454;27;20048;-21
2022/07/20 06:23:41;;;;;;;3.15;1.60;;;22.80;73.20;;;;;;5067402;28;20047;-21
2022/07/20 06:26:06;;;;;;;2.15;1.20;;;22.40;74.60;;;;;;5071889;27;20040;-21
2022/07/20 06:28:33;;;;;;;2.30;1.40;;;22.50;74.40;;;;;;5073232;27;20051;-25
2022/07/20 06:30:58;;;;;;;4.75;1.45;;;22.60;74.60;;;;;;5076659;27;20526;-22
2022/07/20 06:33:25;;;;;;;1.65;1.10;;;22.80;73.90;;;;;;5078082;27;20584;-18
2022/07/20 06:35:50;;;;;;;2.45;1.20;;;22.90;72.90;;;;;;5073749;28;20065;-19
2022/07/20 06:38:16;;;;;;;2.25;0.88;;;23.10;72.30;;;;;;5068666;28;20040;-18
2022/07/20 06:40:42;;;;;;;7.38;2.10;;;23.20;71.80;;;;;;5072387;28;20052;-18
2022/07/20 06:43:07;;;;;;;1.38;0.93;;;23.20;71.60;;;;;;5072226;27;20083;-18
2022/07/20 06:45:33;;;;;;;0.80;0.68;;;23.20;71.20;;;;;;5075121;27;20047;-18
2022/07/20 06:47:58;;;;;;;2.13;0.75;;;23.30;71.80;;;;;;5073687;28;20530;-18
2022/07/20 06:50:24;;;;;;;1.08;0.98;;;23.40;71.60;;;;;;5073347;27;20048;-18
2022/07/20 06:52:49;;;;;;;1.15;1.00;;;23.30;70.50;;;;;;5079455;27;20119;-18
2022/07/20 06:55:15;;;;;;;1.17;0.90;;;23.50;70.10;;;;;;5086485;28;20098;-18
2022/07/20 06:57:41;;;;;;;1.08;0.75;;;23.50;69.50;;;;;;5082207;27;20040;-18
2022/07/20 07:00:07;;;;;;;1.38;0.82;;;23.60;69.30;;;;;;5083443;27;20053;-18
2022/07/20 07:02:33;;;;;;;1.05;1.00;;;23.60;69.30;;;;;;5083002;27;20055;-22
2022/07/20 07:04:58;;;;;;;1.15;0.98;;;23.70;69.00;;;;;;5084456;28;20494;-18
2022/07/20 07:07:24;;;;;;;1.48;1.00;;;23.70;68.90;;;;;;5085462;28;20398;-18
2022/07/20 07:09:50;;;;;;;2.22;0.90;;;23.70;68.70;;;;;;5083340;27;20068;-18
2022/07/20 07:12:15;;;;;;;2.13;0.77;;;23.70;68.60;;;;;;5084975;27;20044;-19
2022/07/20 07:14:41;;;;;;;1.48;0.88;;;23.70;68.30;;;;;;5084644;28;20092;-18
2022/07/20 07:17:06;;;;;;;0.98;0.90;;;23.80;68.20;;;;;;5083581;27;20840;-19
2022/07/20 07:19:32;;;;;;;1.25;0.90;;;23.80;68.10;;;;;;5084124;27;20044;-18
2022/07/20 07:21:58;;;;;;;1.05;1.02;;;23.80;67.90;;;;;;5085710;27;20534;-17
2022/07/20 07:24:23;;;;;;;1.10;0.70;;;23.80;67.80;;;;;;5083472;27;20044;-18
2022/07/20 07:26:49;;;;;;;1.27;0.82;;;23.80;67.70;;;;;;5083110;27;20040;-18
2022/07/20 07:29:14;;;;;;;1.45;1.10;;;23.80;67.60;;;;;;5084900;27;20055;-18
2022/07/20 07:31:40;;;;;;;1.67;1.15;;;23.80;67.50;;;;;;5083252;27;20031;-18
2022/07/20 07:34:06;;;;;;;1.00;0.75;;;23.80;67.40;;;;;;5085222;27;20460;-18
2022/07/20 07:36:31;;;;;;;1.20;0.73;;;23.80;67.40;;;;;;5083600;27;20029;-18
2022/07/20 07:38:57;;;;;;;0.93;0.75;;;23.80;67.30;;;;;;5083697;27;20020;-18
2022/07/20 07:41:23;;;;;;;2.42;0.88;;;23.80;67.10;;;;;;5084016;28;20567;-19
2022/07/20 07:43:48;;;;;;;1.58;1.00;;;23.80;67.00;;;;;;5081957;27;20044;-17
2022/07/20 07:46:14;;;;;;;1.85;1.30;;;23.90;66.90;;;;;;5086227;28;20094;-21
2022/07/20 07:48:39;;;;;;;1.02;0.70;;;23.90;66.90;;;;;;5085735;27;20024;-18
2022/07/20 07:51:06;;;;;;;1.38;1.00;;;23.90;66.80;;;;;;5082031;27;20047;-18
2022/07/20 07:53:31;;;;;;;0.80;0.80;;;23.90;66.80;;;;;;5084786;27;20562;-18
2022/07/20 07:55:57;;;;;;;0.82;0.75;;;23.90;67.40;;;;;;5082525;27;20119;-18
2022/07/20 07:58:23;;;;;;;0.70;0.65;;;23.90;66.50;;;;;;5082756;27;20055;-18
2022/07/20 08:00:49;;;;;;;0.73;0.63;;;23.90;66.50;;;;;;5084894;27;20052;-19
2022/07/20 08:03:14;;;;;;;0.80;0.80;;;23.90;66.30;;;;;;5080557;28;20040;-18
2022/07/20 08:05:40;;;;;;;0.90;0.60;;;23.90;66.30;;;;;;5082846;27;20044;-18
2022/07/20 08:08:10;;;;;;;0.60;0.60;;;23.90;66.10;;;;;;5084716;27;20486;-18
2022/07/20 08:10:36;;;;;;;0.77;0.77;;;23.90;66.00;;;;;;5082866;28;20040;-18
2022/07/20 08:13:03;;;;;;;0.60;0.60;;;24.00;66.00;;;;;;5083764;27;20302;-18
2022/07/20 08:15:28;;;;;;;0.80;0.80;;;24.00;66.00;;;;;;5084661;27;20047;-18
2022/07/20 08:17:54;;;;;;;0.90;0.90;;;23.90;65.80;;;;;;5083693;27;20048;-18
2022/07/20 08:20:21;;;;;;;0.95;0.73;;;23.90;65.70;;;;;;5083983;27;20040;-18
2022/07/20 08:22:48;;;;;;;0.93;0.70;;;23.90;65.70;;;;;;5083592;27;20511;-18
2022/07/20 08:25:13;;;;;;;1.00;0.60;;;24.00;65.60;;;;;;5083202;27;20040;-18
2022/07/20 08:27:39;;;;;;;0.50;0.50;;;24.00;65.50;;;;;;5083569;27;20490;-18
2022/07/20 08:30:05;;;;;;;1.05;0.60;;;23.90;65.50;;;;;;5082842;27;20142;-18
2022/07/20 08:32:31;;;;;;;0.85;0.50;;;24.00;65.50;;;;;;5083952;27;20055;-18
2022/07/20 08:34:56;;;;;;;0.68;0.60;;;24.00;65.30;;;;;;5082599;27;20044;-18
2022/07/20 08:37:22;;;;;;;0.60;0.60;;;24.00;65.20;;;;;;5085111;27;20050;-19
2022/07/20 08:39:47;;;;;;;0.85;0.85;;;24.00;65.10;;;;;;5084576;28;20040;-18
2022/07/20 08:42:13;;;;;;;0.50;0.50;;;24.00;65.10;;;;;;5083280;27;20444;-18
2022/07/20 08:44:40;;;;;;;0.73;0.65;;;24.00;65.10;;;;;;5083801;27;20044;-17
2022/07/20 08:47:05;;;;;;;0.55;0.47;;;24.00;65.00;;;;;;5081847;27;20047;-18
2022/07/20 08:49:31;;;;;;;0.60;0.60;;;24.00;65.00;;;;;;5083392;28;20052;-19
2022/07/20 08:51:58;;;;;;;0.60;0.60;;;24.00;64.90;;;;;;5099799;27;20036;-18
2022/07/20 08:54:24;;;;;;;0.80;0.80;;;24.00;64.80;;;;;;5087125;27;20040;-18
2022/07/20 08:56:50;;;;;;;0.82;0.70;;;24.00;64.80;;;;;;5069226;28;20469;-19
2022/07/20 08:59:16;;;;;;;0.45;0.40;;;24.00;64.80;;;;;;5087014;27;20044;-18
2022/07/20 09:02:01;;;;;;;0.43;0.40;;;24.00;64.80;;;;;;5087920;28;20494;-18
2022/07/20 09:04:26;;;;;;;0.55;0.55;;;24.00;64.70;;;;;;5085314;27;20036;-18
2022/07/20 09:06:52;;;;;;;0.73;0.68;;;24.10;64.70;;;;;;5085602;28;20035;-19
2022/07/20 09:09:18;;;;;;;0.60;0.60;;;24.10;64.50;;;;;;5087974;28;20043;-23
2022/07/20 09:11:44;;;;;;;0.60;0.50;;;24.10;64.60;;;;;;5087573;27;20036;-19
2022/07/20 09:14:09;;;;;;;0.60;0.50;;;24.10;64.70;;;;;;5085238;28;20052;-18
2022/07/20 09:16:48;;;;;;;0.65;0.50;;;24.10;64.60;;;;;;5086277;28;20046;-19
2022/07/20 09:19:14;;;;;;;0.50;0.50;;;24.10;64.50;;;;;;5086887;27;20576;-18
2022/07/20 09:21:40;;;;;;;0.77;0.63;;;24.10;64.50;;;;;;5086959;27;20055;-19
2022/07/20 09:24:06;;;;;;;0.55;0.55;;;24.10;64.60;;;;;;5086062;27;20689;-18
2022/07/20 09:26:32;;;;;;;0.85;0.50;;;24.20;64.40;;;;;;5086037;27;20475;-19
2022/07/20 09:28:59;;;;;;;0.50;0.50;;;24.20;64.50;;;;;;5087400;27;20548;-18
2022/07/20 09:31:34;;;;;;;0.70;0.70;;;24.20;64.40;;;;;;5086517;28;20043;-19
2022/07/20 09:34:05;;;;;;;0.50;0.50;;;24.20;64.40;;;;;;5085910;27;20052;-18
2022/07/20 09:36:32;;;;;;;0.55;0.50;;;24.20;64.40;;;;;;5084805;27;20093;-19
2022/07/20 09:39:21;;;;;;;0.50;0.50;;;24.20;65.20;;;;;;5085064;27;20587;-17
2022/07/20 09:41:52;;;;;;;0.47;0.47;;;24.20;64.40;;;;;;5086923;27;20047;-18
2022/07/20 09:44:22;;;;;;;0.60;0.55;;;24.20;64.40;;;;;;5085932;27;20055;-18
2022/07/20 09:46:47;;;;;;;0.77;0.50;;;24.20;64.50;;;;;;5085081;28;20050;-20
2022/07/20 09:49:13;;;;;;;0.50;0.50;;;24.20;64.20;;;;;;5087679;28;20036;-18
2022/07/20 09:51:40;;;;;;;0.57;0.38;;;24.20;64.50;;;;;;5086007;28;20482;-18
2022/07/20 09:54:07;;;;;;;0.40;0.40;;;24.20;64.50;;;;;;5085014;27;20036;-18
2022/07/20 09:56:34;;;;;;;0.50;0.50;;;24.20;64.20;;;;;;5081853;27;20049;-19
2022/07/20 09:59:04;;;;;;;0.40;0.40;;;24.20;64.10;;;;;;5086191;27;20051;-19
2022/07/20 10:01:30;;;;;;;0.55;0.55;;;24.20;64.00;;;;;;5085843;27;20052;-18
2022/07/20 10:03:57;;;;;;;0.50;0.50;;;24.30;64.00;;;;;;5086601;27;20044;-18
2022/07/20 10:06:24;;;;;;;0.30;0.30;;;24.20;63.90;;;;;;5083939;27;20078;-18
2022/07/20 10:08:50;;;;;;;0.50;0.50;;;24.30;64.00;;;;;;5082012;27;20032;-18
2022/07/20 10:11:16;;;;;;;1.00;0.55;;;24.30;64.80;;;;;;5078035;27;20911;-18
2022/07/20 10:13:42;;;;;;;1.08;0.40;;;24.30;64.00;;;;;;5084351;27;20060;-18
2022/07/20 10:16:45;;;;;;;0.60;0.45;;;24.30;64.00;;;;;;5083521;27;20052;-20
2022/07/20 10:19:11;;;;;;;0.52;0.52;;;24.30;63.80;;;;;;5083777;27;20048;-18
2022/07/20 10:21:49;;;;;;;0.65;0.47;;;24.30;64.00;;;;;;5081188;28;20177;-18
2022/07/20 10:24:29;;;;;;;0.93;0.50;;;24.30;63.80;;;;;;5077645;28;20043;-18
2022/07/20 10:27:16;;;;;;;0.30;0.30;;;24.30;63.90;;;;;;5080575;27;20059;-22
2022/07/20 10:29:45;;;;;;;0.40;0.40;;;24.30;63.80;;;;;;5083278;27;20043;-21
2022/07/20 10:32:24;;;;;;;0.57;0.57;;;24.30;63.70;;;;;;5080099;27;20064;-21
2022/07/20 10:34:50;;;;;;;0.40;0.40;;;24.30;63.70;;;;;;5082154;27;20514;-21
2022/07/20 10:37:23;;;;;;;0.52;0.52;;;24.30;64.60;;;;;;5079339;27;20495;-24
2022/07/20 10:39:50;;;;;;;0.68;0.50;;;24.30;63.70;;;;;;5082254;27;20028;-20
2022/07/20 10:42:30;;;;;;;0.30;0.30;;;24.30;63.80;;;;;;5083862;27;20060;-20
2022/07/20 10:45:27;;;;;;;0.30;0.30;;;24.30;63.70;;;;;;5079115;27;20040;-20
2022/07/20 10:48:11;;;;;;;0.47;0.47;;;24.30;63.70;;;;;;5081980;27;20525;-20
2022/07/20 10:50:39;;;;;;;;;;;24.30;63.60;;;;;;5078296;28;20530;-20
2022/07/20 10:53:11;;;;;;;0.40;0.40;;;24.30;63.50;;;;;;5082478;27;19931;-19
2022/07/20 10:55:37;;;;;;;0.50;0.50;;;24.30;63.60;;;;;;5082049;27;20052;-20
2022/07/20 10:58:10;;;;;;;0.77;0.60;;;24.30;63.60;;;;;;5080634;28;20055;-20
2022/07/20 11:00:39;;;;;;;0.30;0.30;;;24.30;63.40;;;;;;5082085;27;20092;-19
2022/07/20 11:03:13;;;;;;;0.30;0.30;;;24.40;63.40;;;;;;5079571;28;20036;-19
2022/07/20 11:05:39;;;;;;;0.32;0.32;;;24.40;63.30;;;;;;5080450;28;20048;-19
2022/07/20 11:08:05;;;;;;;0.32;0.30;;;24.40;63.30;;;;;;5081301;27;20029;-19
2022/07/20 11:10:31;;;;;;;0.40;0.40;;;24.40;63.30;;;;;;5083373;27;20066;-20
2022/07/20 11:13:02;;;;;;;0.38;0.38;;;24.40;63.20;;;;;;5079728;27;20479;-20
2022/07/20 11:15:46;;;;;;;0.30;0.30;;;24.40;63.10;;;;;;5077467;27;20051;-20
2022/07/20 11:18:13;;;;;;;0.30;0.30;;;24.40;63.10;;;;;;5080675;28;20071;-19
2022/07/20 11:20:51;;;;;;;0.55;0.38;;;24.40;63.00;;;;;;5081518;27;20087;-19
2022/07/20 11:23:17;;;;;;;0.43;0.40;;;24.40;63.00;;;;;;5078244;27;20063;-19
2022/07/20 11:25:50;;;;;;;0.20;0.20;;;24.40;63.00;;;;;;5076262;28;20064;-20
2022/07/20 11:28:26;;;;;;;0.30;0.30;;;24.40;63.00;;;;;;5079376;28;20512;-21
2022/07/20 11:30:52;;;;;;;0.20;0.20;;;24.40;62.90;;;;;;5081484;27;20055;-21
2022/07/20 11:33:28;;;;;;;0.38;0.28;;;24.50;62.90;;;;;;5072889;27;20052;-20
2022/07/20 11:35:55;;;;;;;0.43;0.43;;;24.40;62.90;;;;;;5060808;28;20066;-22
2022/07/20 11:38:21;;;;;;;0.30;0.30;;;24.40;62.90;;;;;;5070648;28;20048;-21
2022/07/20 11:40:58;;;;;;;0.30;0.30;;;24.40;62.80;;;;;;5073224;28;20486;-22
2022/07/20 11:43:23;;;;;;;0.40;0.40;;;24.40;62.80;;;;;;5074648;27;20060;-21
2022/07/20 11:45:49;;;;;;;0.35;0.30;;;24.50;62.80;;;;;;5077089;28;20046;-21
2022/07/20 11:48:16;;;;;;;0.50;0.50;;;24.50;62.80;;;;;;5077011;27;20449;-20
2022/07/20 11:50:42;;;;;;;0.70;0.40;;;24.50;63.10;;;;;;5080460;27;20028;-20
2022/07/20 11:53:28;;;;;;;0.47;0.43;;;24.50;62.90;;;;;;5073420;27;20411;-21
2022/07/20 11:55:55;;;;;;;0.75;0.40;;;24.50;62.90;;;;;;5083040;27;20526;-21
2022/07/20 11:58:26;;;;;;;0.75;0.50;;;24.50;63.40;;;;;;5083221;27;20048;-20
2022/07/20 12:00:51;;;;;;;0.75;0.73;;;24.50;64.00;;;;;;5083500;28;20044;-20
2022/07/20 12:03:40;;;;;;;1.30;0.50;;;24.50;64.00;;;;;;5083642;27;20574;-22
2022/07/20 12:06:10;;;;;;;2.70;0.90;;;24.50;64.50;;;;;;5081942;27;20067;-18
2022/07/20 12:08:35;;;;;;;2.05;0.80;;;24.50;64.10;;;;;;5083945;27;20100;-20
2022/07/20 12:11:01;;;;;;;0.70;0.40;;;24.50;64.50;;;;;;5082513;28;20123;-21
2022/07/20 12:13:27;;;;;;;1.23;0.57;;;24.50;64.40;;;;;;5083180;27;20139;-20
2022/07/20 12:16:04;;;;;;;1.77;0.57;;;24.50;64.00;;;;;;5083607;27;20516;-20
2022/07/20 12:18:41;;;;;;;0.50;0.50;;;24.60;64.10;;;;;;5083276;27;20082;-20
2022/07/20 12:21:08;;;;;;;0.60;0.50;;;24.60;63.90;;;;;;5082132;28;20059;-19
2022/07/20 12:23:34;;;;;;;1.38;0.52;;;24.60;63.90;;;;;;5084243;28;20082;-20
2022/07/20 12:26:00;;;;;;;1.13;0.55;;;24.60;63.60;;;;;;5084521;27;20059;-21
2022/07/20 12:28:28;;;;;;;0.57;0.50;;;24.60;63.70;;;;;;5083732;27;20079;-20
2022/07/20 12:31:02;;;;;;;0.68;0.50;;;24.60;63.60;;;;;;5087991;27;20128;-20
2022/07/20 12:33:27;;;;;;;0.60;0.45;;;24.60;63.50;;;;;;5085589;28;20047;-24
2022/07/20 12:35:53;;;;;;;0.57;0.40;;;24.60;63.40;;;;;;5087155;28;20117;-23
2022/07/20 12:38:19;;;;;;;0.82;0.52;;;24.60;63.40;;;;;;5069167;28;20055;-26
2022/07/20 12:40:48;;;;;;;1.10;0.55;;;24.60;63.20;;;;;;5084478;27;20083;-22
2022/07/20 12:43:26;;;;;;;1.00;0.40;;;24.60;63.10;;;;;;5088027;28;20047;-27
2022/07/20 12:45:53;;;;;;;0.77;0.60;;;24.60;63.20;;;;;;5088205;27;20426;-23
2022/07/20 12:48:18;;;;;;;0.50;0.50;;;24.60;63.20;;;;;;5085945;28;20581;-26
2022/07/20 12:50:44;;;;;;;0.60;0.60;;;24.60;63.00;;;;;;5088435;28;20048;-24
2022/07/20 12:53:09;;;;;;;0.50;0.40;;;24.60;63.10;;;;;;5087474;27;20054;-22